Emporia, KS (66801)

12:32 AM CDT on October 25, 2014 (GMT -0500)
Timmerman School Area | Change Station
CLOSE
Current Station
Personal Weather Station
Location: Emporia, KS
Elevation: 1214 ft
Nearby Weather Stations

Elev 1214 ft 38.43 °N, 96.22 °W | Updated 12 minutes ago

Clear
Clear
64.8 °F
Feels Like 64.8 °F
N
0.0
Wind Variable Wind from SSE
Gusts 0.0 mph

Today
High -- | Low -- °F
--% Chance of Precip.
Yesterday
High -- | Low -- °F
Precip. -- in
7:43 AM 6:33 PM
New Moon, 2% visible
Pressure 29.99 in
Visibility 10.0 miles
Clouds Clear
Dew Point 63 °F
Humidity 94%
Rainfall 0.00 in
Snow Depth Not available.
UV 0 out of 12
Pollen 3.40 out of 12
Air Quality Not available.
Flu Activity No Activity
METAR KEMP 250453Z AUTO 22006KT 10SM CLR 17/16 A3000 RMK AO2 SLP155 T01720161

More Conditions Fewer Conditions

Pressure 29.99 in
Visibility 10.0 miles
Clouds Clear
Dew Point 63 °F
Humidity 94%
Rainfall 0.00 in
Snow Depth Not available.
UV 0 out of 12
Pollen 3.40 out of 12
Air Quality Not available.
Flu Activity No Activity
METAR KEMP 250453Z AUTO 22006KT 10SM CLR 17/16 A3000 RMK AO2 SLP155 T01720161

More Conditions Fewer Conditions

10-Day Weather Forecast

Almanac

Astronomy

Oct. 25, 2014 Rise Set
Actual Time 7:43 AM CDT 6:33 PM CDT
Civil Twilight 7:16 AM CDT 7:00 PM CDT
Nautical Twilight 6:45 AM CDT 7:31 PM CDT
Astronomical Twilight 6:14 AM CDT 8:01 PM CDT
Moon 9:22 AM CDT 7:58 PM CDT
Length of Visible Light 11h 43m
Length of Day
10h 49m
Tomorrow will be 2m 17s shorter.
New Moon, 2% of the Moon is Illuminated
Today
New Moon
Oct 30
First Quarter
Nov 6
Full
Nov 14
Last Quarter
Nov 22
New

Today's Extremes

State Highs State Lows

Community

WunderPhotos

Upload Photos

1,764,785 photos uploaded!

Nearby

Snow Depth

Station Depth Elevation
No new snow has been reported.

Earthquake Activity

City Distance Mag. Time & Date
Medford, Oklahoma 143 miles 2.6 12:44 PM CDT
2014-10-24
Anthony, Kansas 132 miles 2.7 4:24 AM CDT
2014-10-24
Medford, Oklahoma 147 miles 3.0 2:06 AM CDT
2014-10-23
Pawnee, Oklahoma 145 miles 2.7 1:06 AM CDT
2014-10-23
Minimum magnitude displayed is 2.5.

Coastal Water Temperatures

Place Temperature
No Stations Reporting

Nearby Weather Stations